createdAt,value
2023-02-13T00:00:47.430Z,100.00
2023-02-13T00:03:15.113Z,100.00
2023-02-13T00:05:42.575Z,100.00
2023-02-13T00:08:09.934Z,100.00
2023-02-13T00:10:37.684Z,100.00
2023-02-13T00:13:05.299Z,100.00
2023-02-13T00:15:33.790Z,100.00
2023-02-13T00:18:02.722Z,100.00
2023-02-13T00:20:30.303Z,100.00
2023-02-13T00:22:59.351Z,100.00
2023-02-13T00:25:27.229Z,100.00
2023-02-13T00:27:54.935Z,100.00
2023-02-13T00:30:23.192Z,100.00
2023-02-13T00:32:51.964Z,100.00
2023-02-13T00:35:19.463Z,100.00
2023-02-13T00:37:46.732Z,100.00
2023-02-13T00:40:14.129Z,100.00
2023-02-13T00:42:41.434Z,100.00
2023-02-13T00:45:09.333Z,100.00
2023-02-13T00:47:36.812Z,100.00
2023-02-13T00:50:04.797Z,100.00
2023-02-13T00:52:32.328Z,100.00
2023-02-13T00:54:59.997Z,100.00
2023-02-13T00:57:27.569Z,100.00
2023-02-13T00:59:55.076Z,100.00
2023-02-13T01:02:22.406Z,100.00
2023-02-13T01:04:49.895Z,100.00
2023-02-13T01:07:19.038Z,100.00
2023-02-13T01:09:46.348Z,100.00
2023-02-13T01:12:13.747Z,100.00
2023-02-13T01:14:42.714Z,100.00
2023-02-13T01:17:10.969Z,100.00
2023-02-13T01:19:40.502Z,100.00
2023-02-13T01:22:09.045Z,100.00
2023-02-13T01:24:36.540Z,100.00
2023-02-13T01:27:03.967Z,100.00
2023-02-13T01:29:31.674Z,100.00
2023-02-13T01:31:59.364Z,100.00
2023-02-13T01:34:29.266Z,100.00
2023-02-13T01:36:56.798Z,100.00
2023-02-13T01:39:26.264Z,100.00
2023-02-13T01:41:53.773Z,100.00
2023-02-13T01:44:56.358Z,100.00
2023-02-13T01:47:41.313Z,100.00
2023-02-13T01:50:23.154Z,100.00
2023-02-13T01:52:57.793Z,100.00
2023-02-13T01:55:27.884Z,100.00
2023-02-13T01:58:03.162Z,100.00
2023-02-13T02:00:31.247Z,100.00
2023-02-13T02:03:07.312Z,100.00
2023-02-13T02:05:36.577Z,100.00
2023-02-13T02:08:08.966Z,100.00
2023-02-13T02:10:38.144Z,100.00
2023-02-13T02:13:21.086Z,100.00
2023-02-13T02:15:50.387Z,100.00
2023-02-13T02:18:24.219Z,100.00
2023-02-13T02:21:36.973Z,100.00
2023-02-13T02:24:32.333Z,100.00
2023-02-13T02:27:10.602Z,100.00
2023-02-13T02:30:12.373Z,100.00
2023-02-13T02:32:55.314Z,100.00
2023-02-13T02:35:42.115Z,100.00
2023-02-13T02:38:46.128Z,100.00
2023-02-13T02:41:42.983Z,100.00
2023-02-13T02:44:28.804Z,100.00
2023-02-13T02:47:17.447Z,100.00
2023-02-13T02:50:00.423Z,100.00
2023-02-13T02:52:53.483Z,100.00
2023-02-13T02:55:40.133Z,100.00
2023-02-13T02:58:36.675Z,100.00
2023-02-13T03:01:26.879Z,100.00
2023-02-13T03:04:16.095Z,100.00
2023-02-13T03:06:53.088Z,100.00
2023-02-13T03:09:54.951Z,100.00
2023-02-13T03:12:45.624Z,100.00
2023-02-13T03:15:13.902Z,100.00
2023-02-13T03:17:59.699Z,100.00
2023-02-13T03:21:11.364Z,100.00
2023-02-13T03:24:00.367Z,100.00
2023-02-13T03:26:50.888Z,100.00
2023-02-13T03:30:04.479Z,100.00
2023-02-13T03:32:58.903Z,100.00
2023-02-13T03:35:55.976Z,100.00
2023-02-13T03:38:27.600Z,100.00
2023-02-13T03:41:19.770Z,100.00
2023-02-13T03:44:12.322Z,100.00
2023-02-13T03:46:45.798Z,100.00
2023-02-13T03:50:02.975Z,100.00
2023-02-13T03:52:46.913Z,100.00
2023-02-13T03:55:53.297Z,100.00
2023-02-13T03:58:50.225Z,100.00
2023-02-13T04:01:18.897Z,100.00
2023-02-13T04:03:56.601Z,100.00
2023-02-13T04:06:35.744Z,100.00
2023-02-13T04:09:03.311Z,100.00
2023-02-13T04:11:36.152Z,100.00
2023-02-13T04:14:49.854Z,100.00
2023-02-13T04:17:26.359Z,100.00
2023-02-13T04:19:54.828Z,100.00
2023-02-13T04:22:22.187Z,100.00
2023-02-13T04:24:49.707Z,100.00
2023-02-13T04:27:17.999Z,100.00
2023-02-13T04:29:45.631Z,100.00
2023-02-13T04:32:14.333Z,100.00
2023-02-13T04:34:44.372Z,100.00
2023-02-13T04:37:11.746Z,100.00
2023-02-13T04:39:39.195Z,100.00
2023-02-13T04:42:06.735Z,100.00
2023-02-13T04:44:34.202Z,100.00
2023-02-13T04:47:01.597Z,100.00
2023-02-13T04:49:29.068Z,100.00
2023-02-13T04:51:56.457Z,100.00
2023-02-13T04:54:23.801Z,100.00
2023-02-13T04:56:51.141Z,100.00
2023-02-13T04:59:18.579Z,100.00
2023-02-13T05:01:45.839Z,100.00
2023-02-13T05:04:16.389Z,100.00
2023-02-13T05:06:44.050Z,100.00
2023-02-13T05:09:11.373Z,100.00
2023-02-13T05:11:38.798Z,100.00
2023-02-13T05:14:06.169Z,100.00
2023-02-13T05:16:33.421Z,100.00
2023-02-13T05:19:00.574Z,100.00
2023-02-13T05:21:46.082Z,100.00
2023-02-13T05:24:13.618Z,100.00
2023-02-13T05:26:41.077Z,100.00
2023-02-13T05:29:19.463Z,100.00
2023-02-13T05:31:48.454Z,100.00
2023-02-13T05:34:16.280Z,100.00
2023-02-13T05:36:43.797Z,100.00
2023-02-13T05:39:11.122Z,100.00
2023-02-13T05:41:38.416Z,100.00
2023-02-13T05:44:05.662Z,100.00
2023-02-13T05:46:34.040Z,100.00
2023-02-13T05:49:03.182Z,100.00
2023-02-13T05:51:32.521Z,100.00
2023-02-13T05:54:00.119Z,100.00
2023-02-13T05:56:27.801Z,100.00
2023-02-13T05:58:56.300Z,100.00
2023-02-13T06:01:24.963Z,100.00
2023-02-13T06:03:52.461Z,100.00
2023-02-13T06:06:20.128Z,100.00
2023-02-13T06:08:47.510Z,100.00
2023-02-13T06:11:14.872Z,100.00
2023-02-13T06:13:42.223Z,100.00
2023-02-13T06:16:11.266Z,100.00
2023-02-13T06:18:39.402Z,100.00
2023-02-13T06:21:07.390Z,100.00
2023-02-13T06:23:34.832Z,100.00
2023-02-13T06:26:06.058Z,100.00
2023-02-13T06:28:34.025Z,100.00
2023-02-13T06:31:02.184Z,100.00
2023-02-13T06:33:29.952Z,100.00
2023-02-13T06:35:57.303Z,100.00
2023-02-13T06:38:24.657Z,100.00
2023-02-13T06:40:52.057Z,100.00
2023-02-13T06:43:19.483Z,100.00
2023-02-13T06:45:47.357Z,100.00
2023-02-13T06:48:15.183Z,100.00
2023-02-13T06:50:42.697Z,100.00
2023-02-13T06:53:10.406Z,100.00
2023-02-13T06:55:39.632Z,100.00
2023-02-13T06:58:07.307Z,100.00
2023-02-13T07:00:34.752Z,100.00
2023-02-13T07:03:04.622Z,100.00
2023-02-13T07:05:33.089Z,100.00
2023-02-13T07:08:00.595Z,100.00
2023-02-13T07:10:27.893Z,100.00
2023-02-13T07:13:05.317Z,100.00
2023-02-13T07:15:35.449Z,100.00
2023-02-13T07:18:03.534Z,100.00
2023-02-13T07:20:31.149Z,100.00
2023-02-13T07:23:02.024Z,100.00
2023-02-13T07:25:30.089Z,100.00
2023-02-13T07:28:07.379Z,100.00
2023-02-13T07:30:36.330Z,100.00
2023-02-13T07:33:05.046Z,100.00
2023-02-13T07:35:33.297Z,100.00
2023-02-13T07:38:01.027Z,100.00
2023-02-13T07:40:28.726Z,100.00
2023-02-13T07:42:57.115Z,100.00
2023-02-13T07:45:24.597Z,100.00
2023-02-13T07:47:52.515Z,100.00
2023-02-13T07:50:20.339Z,100.00
2023-02-13T07:52:55.683Z,100.00
2023-02-13T07:55:23.385Z,100.00
2023-02-13T07:57:51.663Z,100.00
2023-02-13T08:00:20.243Z,100.00
2023-02-13T08:02:48.193Z,100.00
2023-02-13T08:05:15.815Z,100.00
2023-02-13T08:07:43.124Z,100.00
2023-02-13T08:10:31.644Z,100.00
2023-02-13T08:12:59.584Z,100.00
2023-02-13T08:15:27.436Z,100.00
2023-02-13T08:17:54.965Z,100.00
2023-02-13T08:20:22.388Z,100.00
2023-02-13T08:22:50.106Z,100.00
2023-02-13T08:25:18.986Z,100.00
2023-02-13T08:27:47.362Z,100.00
2023-02-13T08:30:17.764Z,100.00
2023-02-13T08:32:54.526Z,100.00
2023-02-13T08:35:26.713Z,100.00
2023-02-13T08:37:54.406Z,100.00
2023-02-13T08:40:23.506Z,100.00
2023-02-13T08:42:52.866Z,100.00
2023-02-13T08:45:20.364Z,100.00
2023-02-13T08:47:47.941Z,100.00
2023-02-13T08:50:15.444Z,100.00
2023-02-13T08:52:43.172Z,100.00
2023-02-13T08:55:10.565Z,100.00
2023-02-13T08:57:38.000Z,100.00
2023-02-13T09:00:06.223Z,100.00
2023-02-13T09:02:33.747Z,100.00
2023-02-13T09:05:01.314Z,100.00
2023-02-13T09:07:28.752Z,100.00
2023-02-13T09:09:56.358Z,100.00
2023-02-13T09:12:23.947Z,100.00
2023-02-13T09:14:52.420Z,100.00
2023-02-13T09:17:19.886Z,100.00
2023-02-13T09:19:47.470Z,100.00
2023-02-13T09:22:17.361Z,100.00
2023-02-13T09:24:44.915Z,100.00
2023-02-13T09:27:12.592Z,100.00
2023-02-13T09:29:40.135Z,100.00
2023-02-13T09:32:07.936Z,100.00
2023-02-13T09:34:35.380Z,100.00
2023-02-13T09:37:02.695Z,100.00
2023-02-13T09:39:29.826Z,100.00
2023-02-13T09:41:58.950Z,100.00
2023-02-13T09:44:42.234Z,100.00
2023-02-13T09:47:19.013Z,100.00
2023-02-13T09:49:57.276Z,100.00
2023-02-13T09:52:28.537Z,100.00
2023-02-13T09:54:56.185Z,100.00
2023-02-13T09:57:39.914Z,100.00
2023-02-13T10:00:20.908Z,100.00
2023-02-13T10:02:57.823Z,100.00
2023-02-13T10:05:46.929Z,100.00
2023-02-13T10:08:23.500Z,100.00
2023-02-13T10:11:07.902Z,100.00
2023-02-13T10:14:08.666Z,100.00
2023-02-13T10:16:40.752Z,100.00
2023-02-13T10:19:41.469Z,100.00
2023-02-13T10:22:18.353Z,100.00
2023-02-13T10:25:08.882Z,100.00
2023-02-13T10:27:41.751Z,100.00
2023-02-13T10:30:18.460Z,100.00
2023-02-13T10:33:19.197Z,100.00
2023-02-13T10:36:02.760Z,100.00
2023-02-13T10:38:34.626Z,100.00
2023-02-13T10:41:47.516Z,100.00
2023-02-13T10:44:34.454Z,100.00
2023-02-13T10:47:01.870Z,100.00
2023-02-13T10:49:38.145Z,100.00
2023-02-13T10:52:19.173Z,100.00
2023-02-13T10:54:57.505Z,99.88
2023-02-13T10:57:47.896Z,99.82
2023-02-13T11:00:20.974Z,100.00
2023-02-13T11:02:48.754Z,100.00
2023-02-13T11:05:25.582Z,99.24
2023-02-13T11:07:53.228Z,98.30
2023-02-13T11:10:26.124Z,97.43
2023-02-13T11:12:54.082Z,97.71
2023-02-13T11:15:26.136Z,98.04
2023-02-13T11:18:03.957Z,98.03
2023-02-13T11:20:41.349Z,98.25
2023-02-13T11:23:18.421Z,98.25
2023-02-13T11:26:02.912Z,96.27
2023-02-13T11:28:34.911Z,95.86
2023-02-13T11:31:24.495Z,95.55
2023-02-13T11:33:52.890Z,95.17
2023-02-13T11:36:34.314Z,93.76
2023-02-13T11:39:19.935Z,94.08
2023-02-13T11:41:50.958Z,93.00
2023-02-13T11:44:30.079Z,91.62
2023-02-13T11:47:00.648Z,89.86
2023-02-13T11:49:30.626Z,89.54
2023-02-13T11:52:01.820Z,89.24
2023-02-13T11:54:46.021Z,88.16
2023-02-13T11:57:21.089Z,87.44
2023-02-13T11:59:51.873Z,88.23
2023-02-13T12:02:50.029Z,88.04
2023-02-13T12:05:21.009Z,87.52
2023-02-13T12:07:50.836Z,87.09
2023-02-13T12:10:23.086Z,87.51
2023-02-13T12:12:56.723Z,87.38
2023-02-13T12:15:33.347Z,87.28
2023-02-13T12:18:31.229Z,87.36
2023-02-13T12:21:01.808Z,86.28
2023-02-13T12:23:47.268Z,86.33
2023-02-13T12:26:17.700Z,86.85
2023-02-13T12:29:12.824Z,87.20
2023-02-13T12:32:24.660Z,86.30
2023-02-13T12:35:27.662Z,85.63
2023-02-13T12:38:18.664Z,85.83
2023-02-13T12:41:05.393Z,86.63
2023-02-13T12:43:51.810Z,86.65
2023-02-13T12:46:31.476Z,86.12
2023-02-13T12:49:18.166Z,85.92
2023-02-13T12:51:53.396Z,86.47
2023-02-13T12:54:30.711Z,86.55
2023-02-13T12:57:20.123Z,86.68
2023-02-13T12:59:59.495Z,86.46
2023-02-13T13:03:10.322Z,86.55
2023-02-13T13:06:12.900Z,87.36
2023-02-13T13:09:22.006Z,88.42
2023-02-13T13:12:20.514Z,88.52
2023-02-13T13:15:09.771Z,88.51
2023-02-13T13:18:05.127Z,88.21
2023-02-13T13:20:37.695Z,87.96
2023-02-13T13:23:30.747Z,88.39
2023-02-13T13:25:58.282Z,87.01
2023-02-13T13:28:32.941Z,87.42
2023-02-13T13:31:02.117Z,87.50
2023-02-13T13:33:30.964Z,87.14
2023-02-13T13:36:01.118Z,86.45
2023-02-13T13:38:39.427Z,86.54
2023-02-13T13:41:31.965Z,86.68
2023-02-13T13:44:22.252Z,85.71
2023-02-13T13:47:03.037Z,84.71
2023-02-13T13:49:44.837Z,85.31
2023-02-13T13:52:20.408Z,86.52
2023-02-13T13:54:57.233Z,85.72
2023-02-13T13:57:26.044Z,86.12
2023-02-13T14:00:00.116Z,86.95
2023-02-13T14:02:48.206Z,86.92
2023-02-13T14:05:34.118Z,87.25
2023-02-13T14:08:04.345Z,88.27
2023-02-13T14:10:31.820Z,88.74
2023-02-13T14:13:02.672Z,89.21
2023-02-13T14:15:44.825Z,89.54
2023-02-13T14:18:22.934Z,89.92
2023-02-13T14:20:54.025Z,90.00
2023-02-13T14:23:30.671Z,89.27
2023-02-13T14:26:13.517Z,88.96
2023-02-13T14:29:00.026Z,88.84
2023-02-13T14:31:34.290Z,87.73
2023-02-13T14:34:23.163Z,87.68
2023-02-13T14:37:07.326Z,87.71
2023-02-13T14:39:36.130Z,88.19
2023-02-13T14:42:21.509Z,88.67
2023-02-13T14:44:51.918Z,88.71
2023-02-13T14:47:39.776Z,89.00
2023-02-13T14:50:09.319Z,88.96
2023-02-13T14:52:43.110Z,88.67
2023-02-13T14:55:34.039Z,88.77
2023-02-13T14:58:14.731Z,88.48
2023-02-13T15:00:51.549Z,87.71
2023-02-13T15:03:41.177Z,87.44
2023-02-13T15:06:21.689Z,86.55
2023-02-13T15:08:52.074Z,85.55
2023-02-13T15:11:43.017Z,85.26
2023-02-13T15:14:23.627Z,84.84
2023-02-13T15:16:58.466Z,85.29
2023-02-13T15:19:26.754Z,85.08
2023-02-13T15:22:00.733Z,85.64
2023-02-13T15:24:46.322Z,84.93
2023-02-13T15:27:26.658Z,84.57
2023-02-13T15:30:25.213Z,83.44
2023-02-13T15:33:15.851Z,81.39
2023-02-13T15:35:43.574Z,80.45
2023-02-13T15:38:31.721Z,80.31
2023-02-13T15:41:05.143Z,79.95
2023-02-13T15:43:40.509Z,79.48
2023-02-13T15:46:38.867Z,79.59
2023-02-13T15:49:10.592Z,79.34
2023-02-13T15:51:38.770Z,77.86
2023-02-13T15:54:22.144Z,77.37
2023-02-13T15:56:52.954Z,76.67
2023-02-13T15:59:21.288Z,75.84
2023-02-13T16:01:50.903Z,74.21
2023-02-13T16:04:20.659Z,72.52
2023-02-13T16:06:52.597Z,72.65
2023-02-13T16:09:38.178Z,71.24
2023-02-13T16:12:28.474Z,72.04
2023-02-13T16:15:05.863Z,70.92
2023-02-13T16:17:38.558Z,70.93
2023-02-13T16:20:12.071Z,71.35
2023-02-13T16:23:14.028Z,71.64
2023-02-13T16:25:41.842Z,71.10
2023-02-13T16:28:25.751Z,71.21
2023-02-13T16:30:53.244Z,71.76
2023-02-13T16:33:30.985Z,71.66
2023-02-13T16:36:29.273Z,71.86
2023-02-13T16:38:56.903Z,71.67
2023-02-13T16:41:29.879Z,71.55
2023-02-13T16:44:23.185Z,71.46
2023-02-13T16:47:24.374Z,71.33
2023-02-13T16:49:56.596Z,71.49
2023-02-13T16:52:26.961Z,71.97
2023-02-13T16:55:03.514Z,72.32
2023-02-13T16:57:34.351Z,72.73
2023-02-13T17:00:24.465Z,73.42
2023-02-13T17:02:53.023Z,74.04
2023-02-13T17:05:22.664Z,74.61
2023-02-13T17:07:53.326Z,75.10
2023-02-13T17:10:44.786Z,75.72
2023-02-13T17:13:19.186Z,76.69
2023-02-13T17:15:48.615Z,77.21
2023-02-13T17:18:16.169Z,77.58
2023-02-13T17:20:45.343Z,78.43
2023-02-13T17:23:18.843Z,79.60
2023-02-13T17:25:48.101Z,80.35
2023-02-13T17:28:22.476Z,81.10
2023-02-13T17:30:56.444Z,82.54
2023-02-13T17:33:27.661Z,83.94
2023-02-13T17:35:55.551Z,84.63
2023-02-13T17:38:23.598Z,85.38
2023-02-13T17:40:52.221Z,85.60
2023-02-13T17:43:20.899Z,86.33
2023-02-13T17:45:49.880Z,86.83
2023-02-13T17:48:17.962Z,88.00
2023-02-13T17:50:51.149Z,89.06
2023-02-13T17:53:27.836Z,88.81
2023-02-13T17:55:55.661Z,88.48
2023-02-13T17:58:23.312Z,88.56
2023-02-13T18:00:51.087Z,89.66
2023-02-13T18:03:18.543Z,89.70
2023-02-13T18:05:48.857Z,90.21
2023-02-13T18:08:17.157Z,89.42
2023-02-13T18:10:44.723Z,90.26
2023-02-13T18:13:12.371Z,90.75
2023-02-13T18:15:43.119Z,91.86
2023-02-13T18:18:12.005Z,92.65
2023-02-13T18:20:39.499Z,92.91
2023-02-13T18:23:07.386Z,92.43
2023-02-13T18:25:35.572Z,93.09
2023-02-13T18:28:03.312Z,93.22
2023-02-13T18:30:30.813Z,92.90
2023-02-13T18:32:59.320Z,93.93
2023-02-13T18:35:27.194Z,93.92
2023-02-13T18:37:54.692Z,94.92
2023-02-13T18:40:22.559Z,95.65
2023-02-13T18:42:51.241Z,96.92
2023-02-13T18:45:18.998Z,97.89
2023-02-13T18:47:46.559Z,98.11
2023-02-13T18:50:14.106Z,97.93
2023-02-13T18:52:41.765Z,98.32
2023-02-13T18:55:09.482Z,99.23
2023-02-13T18:57:36.942Z,99.13
2023-02-13T19:00:05.108Z,99.63
2023-02-13T19:02:33.507Z,98.76
2023-02-13T19:05:03.642Z,97.63
2023-02-13T19:07:31.219Z,97.24
2023-02-13T19:09:58.819Z,98.04
2023-02-13T19:12:26.557Z,98.05
2023-02-13T19:14:54.185Z,97.88
2023-02-13T19:17:21.820Z,97.71
2023-02-13T19:19:49.254Z,98.09
2023-02-13T19:22:16.846Z,98.61
2023-02-13T19:24:44.482Z,98.97
2023-02-13T19:27:12.146Z,98.55
2023-02-13T19:29:39.558Z,99.15
2023-02-13T19:32:07.032Z,100.00
2023-02-13T19:34:34.786Z,100.00
2023-02-13T19:37:02.215Z,100.00
2023-02-13T19:39:29.488Z,100.00
2023-02-13T19:41:57.249Z,100.00
2023-02-13T19:44:24.710Z,100.00
2023-02-13T19:46:52.239Z,100.00
2023-02-13T19:49:22.404Z,100.00
2023-02-13T19:51:49.964Z,100.00
2023-02-13T19:54:17.341Z,100.00
2023-02-13T19:56:45.062Z,100.00
2023-02-13T19:59:13.637Z,100.00
2023-02-13T20:01:42.922Z,100.00
2023-02-13T20:04:11.872Z,100.00
2023-02-13T20:06:39.658Z,100.00
2023-02-13T20:09:10.013Z,100.00
2023-02-13T20:11:39.528Z,100.00
2023-02-13T20:14:11.606Z,100.00
2023-02-13T20:16:39.407Z,100.00
2023-02-13T20:19:09.664Z,100.00
2023-02-13T20:21:38.056Z,100.00
2023-02-13T20:24:06.051Z,100.00
2023-02-13T20:26:34.706Z,100.00
2023-02-13T20:29:02.426Z,100.00
2023-02-13T20:31:30.727Z,100.00
2023-02-13T20:33:58.663Z,100.00
2023-02-13T20:36:28.783Z,100.00
2023-02-13T20:38:59.665Z,100.00
2023-02-13T20:41:29.769Z,100.00
2023-02-13T20:43:59.398Z,100.00
2023-02-13T20:46:29.315Z,100.00
2023-02-13T20:48:56.782Z,100.00
2023-02-13T20:51:24.401Z,100.00
2023-02-13T20:53:52.031Z,100.00
2023-02-13T20:56:23.544Z,100.00
2023-02-13T20:58:52.536Z,100.00
2023-02-13T21:01:24.430Z,100.00
2023-02-13T21:03:54.617Z,100.00
2023-02-13T21:06:30.717Z,100.00
2023-02-13T21:08:58.425Z,100.00
2023-02-13T21:11:28.307Z,100.00
2023-02-13T21:13:57.160Z,100.00
2023-02-13T21:16:27.930Z,100.00
2023-02-13T21:18:58.685Z,100.00
2023-02-13T21:21:29.595Z,100.00
2023-02-13T21:23:59.677Z,100.00
2023-02-13T21:26:27.725Z,100.00
2023-02-13T21:28:55.752Z,100.00
2023-02-13T21:31:30.523Z,100.00
2023-02-13T21:34:00.265Z,100.00
2023-02-13T21:36:27.725Z,100.00
2023-02-13T21:38:55.241Z,100.00
2023-02-13T21:41:23.866Z,100.00
2023-02-13T21:43:51.971Z,100.00
2023-02-13T21:46:21.418Z,100.00
2023-02-13T21:48:53.594Z,100.00
2023-02-13T21:51:22.343Z,100.00
2023-02-13T21:53:50.455Z,100.00
2023-02-13T21:56:29.196Z,100.00
2023-02-13T21:58:57.586Z,100.00
2023-02-13T22:01:30.918Z,100.00
2023-02-13T22:04:09.556Z,100.00
2023-02-13T22:06:39.850Z,100.00
2023-02-13T22:09:17.653Z,100.00
2023-02-13T22:11:45.349Z,100.00
2023-02-13T22:14:17.018Z,100.00
2023-02-13T22:16:46.599Z,100.00
2023-02-13T22:19:16.155Z,100.00
2023-02-13T22:21:44.683Z,100.00
2023-02-13T22:24:13.174Z,100.00
2023-02-13T22:26:43.122Z,100.00
2023-02-13T22:29:13.189Z,100.00
2023-02-13T22:31:41.194Z,100.00
2023-02-13T22:34:12.326Z,100.00
2023-02-13T22:36:40.317Z,100.00
2023-02-13T22:39:09.681Z,100.00
2023-02-13T22:41:37.372Z,100.00
2023-02-13T22:44:05.041Z,100.00
2023-02-13T22:46:33.773Z,100.00
2023-02-13T22:49:01.446Z,100.00
2023-02-13T22:51:34.253Z,100.00
2023-02-13T22:54:02.346Z,100.00
2023-02-13T22:56:31.207Z,100.00
2023-02-13T22:58:59.332Z,100.00
2023-02-13T23:01:28.325Z,100.00
2023-02-13T23:03:56.469Z,100.00
2023-02-13T23:06:24.668Z,100.00
2023-02-13T23:08:53.757Z,100.00
2023-02-13T23:11:42.942Z,100.00
2023-02-13T23:14:11.215Z,100.00
2023-02-13T23:16:59.079Z,100.00
2023-02-13T23:19:27.730Z,100.00
2023-02-13T23:21:55.833Z,100.00
2023-02-13T23:24:24.083Z,100.00
2023-02-13T23:26:51.552Z,100.00
2023-02-13T23:29:19.152Z,100.00
2023-02-13T23:31:46.693Z,100.00
2023-02-13T23:34:14.279Z,100.00
2023-02-13T23:36:41.658Z,100.00
2023-02-13T23:39:09.122Z,100.00
2023-02-13T23:41:36.383Z,100.00
2023-02-13T23:44:03.705Z,100.00
2023-02-13T23:46:31.004Z,100.00
2023-02-13T23:48:58.244Z,100.00
2023-02-13T23:51:25.755Z,100.00
2023-02-13T23:53:56.277Z,100.00
2023-02-13T23:56:25.345Z,100.00
2023-02-13T23:58:53.239Z,100.00
